createdAt,value
2019-04-03T00:00:49.401Z,7.55
2019-04-03T00:01:54.205Z,5.67
2019-04-03T00:02:59.199Z,7.15
2019-04-03T00:04:04.696Z,6.58
2019-04-03T00:05:10.249Z,6.35
2019-04-03T00:06:15.030Z,6.70
2019-04-03T00:07:20.111Z,7.47
2019-04-03T00:08:25.135Z,8.60
2019-04-03T00:09:30.113Z,7.70
2019-04-03T00:10:36.002Z,6.47
2019-04-03T00:11:41.609Z,6.87
2019-04-03T00:12:46.819Z,7.53
2019-04-03T00:13:51.835Z,6.65
2019-04-03T00:14:56.740Z,7.35
2019-04-03T00:16:01.472Z,6.15
2019-04-03T00:17:06.361Z,5.75
2019-04-03T00:18:11.336Z,6.67
2019-04-03T00:19:17.721Z,7.37
2019-04-03T00:20:22.636Z,7.42
2019-04-03T00:21:27.514Z,6.40
2019-04-03T00:22:32.446Z,6.00
2019-04-03T00:23:37.510Z,6.22
2019-04-03T00:24:42.445Z,6.87
2019-04-03T00:25:47.394Z,5.85
2019-04-03T00:26:52.950Z,7.33
2019-04-03T00:27:57.947Z,6.08
2019-04-03T00:29:02.995Z,6.03
2019-04-03T00:30:09.225Z,7.35
2019-04-03T00:31:14.128Z,8.70
2019-04-03T00:32:18.985Z,7.25
2019-04-03T00:33:23.932Z,7.37
2019-04-03T00:34:28.843Z,6.12
2019-04-03T00:35:33.784Z,5.83
2019-04-03T00:36:38.697Z,6.37
2019-04-03T00:37:43.492Z,6.20
2019-04-03T00:38:48.517Z,5.92
2019-04-03T00:39:54.510Z,5.90
2019-04-03T00:40:59.854Z,5.72
2019-04-03T00:42:04.936Z,6.03
2019-04-03T00:43:13.255Z,6.12
2019-04-03T00:44:18.232Z,5.83
2019-04-03T00:45:24.446Z,6.15
2019-04-03T00:46:29.624Z,6.40
2019-04-03T00:47:34.505Z,5.83
2019-04-03T00:48:39.662Z,5.85
2019-04-03T00:49:44.653Z,5.60
2019-04-03T00:50:49.786Z,6.40
2019-04-03T00:51:57.123Z,6.20
2019-04-03T00:53:01.358Z,6.15
2019-04-03T00:54:06.345Z,6.45
2019-04-03T00:55:11.460Z,6.00
2019-04-03T00:56:16.535Z,6.53
2019-04-03T00:57:21.639Z,6.00
2019-04-03T00:58:42.385Z,6.12
2019-04-03T00:59:47.407Z,5.67
2019-04-03T01:00:52.484Z,6.00
2019-04-03T01:01:57.600Z,6.22
2019-04-03T01:03:02.723Z,6.22
2019-04-03T01:04:07.843Z,6.08
2019-04-03T01:05:13.303Z,6.53
2019-04-03T01:06:18.198Z,6.28
2019-04-03T01:07:23.480Z,6.20
2019-04-03T01:08:29.350Z,7.12
2019-04-03T01:09:34.800Z,6.03
2019-04-03T01:10:39.660Z,6.60
2019-04-03T01:11:44.762Z,6.22
2019-04-03T01:12:49.636Z,5.92
2019-04-03T01:13:54.649Z,7.30
2019-04-03T01:15:01.056Z,6.62
2019-04-03T01:16:06.621Z,6.70
2019-04-03T01:17:11.629Z,6.67
2019-04-03T01:18:16.646Z,6.25
2019-04-03T01:19:21.504Z,5.95
2019-04-03T01:20:26.534Z,6.28
2019-04-03T01:21:31.338Z,6.03
2019-04-03T01:22:39.202Z,6.10
2019-04-03T01:23:44.704Z,6.20
2019-04-03T01:24:49.789Z,6.53
2019-04-03T01:25:55.811Z,5.97
2019-04-03T01:27:00.830Z,6.10
2019-04-03T01:28:05.917Z,6.60
2019-04-03T01:29:12.663Z,6.20
2019-04-03T01:30:17.529Z,5.90
2019-04-03T01:31:22.769Z,6.47
2019-04-03T01:32:27.532Z,6.28
2019-04-03T01:33:32.359Z,6.33
2019-04-03T01:34:37.323Z,6.87
2019-04-03T01:35:42.234Z,6.35
2019-04-03T01:36:48.236Z,6.65
2019-04-03T01:37:53.504Z,6.03
2019-04-03T01:38:58.302Z,6.47
2019-04-03T01:40:03.240Z,6.85
2019-04-03T01:41:08.100Z,6.53
2019-04-03T01:42:13.166Z,6.55
2019-04-03T01:43:17.966Z,6.45
2019-04-03T01:44:24.763Z,6.40
2019-04-03T01:45:29.337Z,6.03
2019-04-03T01:46:34.342Z,7.10
2019-04-03T01:47:39.509Z,6.37
2019-04-03T01:48:44.579Z,7.28
2019-04-03T01:49:49.553Z,6.53
2019-04-03T01:50:54.432Z,6.22
2019-04-03T01:52:00.864Z,6.25
2019-04-03T01:53:06.156Z,6.62
2019-04-03T01:54:11.001Z,6.17
2019-04-03T01:55:16.008Z,6.60
2019-04-03T01:56:21.965Z,6.62
2019-04-03T01:57:26.996Z,6.22
2019-04-03T01:58:31.943Z,6.70
2019-04-03T01:59:37.516Z,6.80
2019-04-03T02:00:42.815Z,6.67
2019-04-03T02:01:47.552Z,7.08
2019-04-03T02:02:52.481Z,6.58
2019-04-03T02:03:57.489Z,7.17
2019-04-03T02:05:02.345Z,7.03
2019-04-03T02:06:07.413Z,6.17
2019-04-03T02:07:14.180Z,7.00
2019-04-03T02:08:18.583Z,6.50
2019-04-03T02:09:24.490Z,6.10
2019-04-03T02:10:29.557Z,6.95
2019-04-03T02:11:35.400Z,6.78
2019-04-03T02:12:40.352Z,6.35
2019-04-03T02:13:45.263Z,6.92
2019-04-03T02:14:51.525Z,6.67
2019-04-03T02:15:56.832Z,7.58
2019-04-03T02:17:01.781Z,6.78
2019-04-03T02:18:06.664Z,6.78
2019-04-03T02:19:11.508Z,7.17
2019-04-03T02:20:20.211Z,6.55
2019-04-03T02:21:27.270Z,7.10
2019-04-03T02:22:31.595Z,6.78
2019-04-03T02:23:36.512Z,7.25
2019-04-03T02:24:41.428Z,6.08
2019-04-03T02:25:46.474Z,6.78
2019-04-03T02:26:51.549Z,6.95
2019-04-03T02:27:56.866Z,7.65
2019-04-03T02:29:04.303Z,6.67
2019-04-03T02:30:12.158Z,6.60
2019-04-03T02:31:17.760Z,6.58
2019-04-03T02:32:24.143Z,6.55
2019-04-03T02:33:28.965Z,7.30
2019-04-03T02:34:35.603Z,6.75
2019-04-03T02:35:41.076Z,7.17
2019-04-03T02:36:45.911Z,7.50
2019-04-03T02:37:50.949Z,6.85
2019-04-03T02:38:56.191Z,6.90
2019-04-03T02:40:01.191Z,6.87
2019-04-03T02:41:06.280Z,6.92
2019-04-03T02:42:11.582Z,7.30
2019-04-03T02:43:16.909Z,6.83
2019-04-03T02:44:22.014Z,6.70
2019-04-03T02:45:26.932Z,6.80
2019-04-03T02:46:31.941Z,6.78
2019-04-03T02:47:36.868Z,6.72
2019-04-03T02:48:41.728Z,7.00
2019-04-03T02:49:46.621Z,6.83
2019-04-03T02:50:51.672Z,7.12
2019-04-03T02:51:57.337Z,7.40
2019-04-03T02:53:04.915Z,6.92
2019-04-03T02:54:28.628Z,6.65
2019-04-03T02:55:33.815Z,5.95
2019-04-03T02:56:38.637Z,6.80
2019-04-03T02:57:43.440Z,6.80
2019-04-03T02:58:48.219Z,6.70
2019-04-03T02:59:53.266Z,6.72
2019-04-03T03:00:58.104Z,7.30
2019-04-03T03:02:03.016Z,6.37
2019-04-03T03:03:07.984Z,7.28
2019-04-03T03:04:13.218Z,6.92
2019-04-03T03:05:18.181Z,7.25
2019-04-03T03:06:23.132Z,6.83
2019-04-03T03:07:28.170Z,6.97
2019-04-03T03:08:33.619Z,7.60
2019-04-03T03:09:39.635Z,7.15
2019-04-03T03:10:44.873Z,7.30
2019-04-03T03:11:49.854Z,7.47
2019-04-03T03:12:59.878Z,7.08
2019-04-03T03:14:06.196Z,7.20
2019-04-03T03:15:11.988Z,7.75
2019-04-03T03:16:18.245Z,7.50
2019-04-03T03:17:24.306Z,7.08
2019-04-03T03:18:29.450Z,6.50
2019-04-03T03:19:34.801Z,7.15
2019-04-03T03:20:41.873Z,7.87
2019-04-03T03:21:47.896Z,6.85
2019-04-03T03:22:54.469Z,7.15
2019-04-03T03:23:59.501Z,7.12
2019-04-03T03:25:05.247Z,6.22
2019-04-03T03:26:10.413Z,7.08
2019-04-03T03:27:15.543Z,7.17
2019-04-03T03:28:20.928Z,6.92
2019-04-03T03:29:27.507Z,7.53
2019-04-03T03:30:44.133Z,7.75
2019-04-03T03:32:01.431Z,6.55
2019-04-03T03:32:46.431Z,7.00
2019-04-03T03:33:52.333Z,6.80
2019-04-03T03:35:09.649Z,7.08
2019-04-03T03:36:05.927Z,6.78
2019-04-03T03:37:12.663Z,7.05
2019-04-03T03:38:18.318Z,7.65
2019-04-03T03:39:24.319Z,6.45
2019-04-03T03:40:30.453Z,7.33
2019-04-03T03:41:36.205Z,6.97
2019-04-03T03:42:41.391Z,6.90
2019-04-03T03:43:46.812Z,7.00
2019-04-03T03:44:53.770Z,7.70
2019-04-03T03:45:59.379Z,7.10
2019-04-03T03:47:05.337Z,7.40
2019-04-03T03:48:11.199Z,7.40
2019-04-03T03:49:17.928Z,7.00
2019-04-03T03:50:26.695Z,7.67
2019-04-03T03:51:33.798Z,7.45
2019-04-03T03:52:39.755Z,7.42
2019-04-03T03:53:46.835Z,7.35
2019-04-03T03:54:52.639Z,8.03
2019-04-03T03:55:59.723Z,7.10
2019-04-03T03:57:07.236Z,7.55
2019-04-03T03:58:13.477Z,7.33
2019-04-03T03:59:19.900Z,7.30
2019-04-03T04:00:25.031Z,8.05
2019-04-03T04:01:31.800Z,7.80
2019-04-03T04:02:38.012Z,7.50
2019-04-03T04:03:44.071Z,7.03
2019-04-03T04:04:50.140Z,7.05
2019-04-03T04:05:56.672Z,8.15
2019-04-03T04:07:03.380Z,7.00
2019-04-03T04:08:10.597Z,7.00
2019-04-03T04:09:17.222Z,7.30
2019-04-03T04:10:25.238Z,7.25
2019-04-03T04:11:31.059Z,7.37
2019-04-03T04:12:39.738Z,6.92
2019-04-03T04:13:47.616Z,7.65
2019-04-03T04:14:54.407Z,7.60
2019-04-03T04:16:02.086Z,7.25
2019-04-03T04:17:08.654Z,7.30
2019-04-03T04:18:14.425Z,7.35
2019-04-03T04:19:19.325Z,7.83
2019-04-03T04:20:24.523Z,7.47
2019-04-03T04:21:29.572Z,7.05
2019-04-03T04:22:35.149Z,7.55
2019-04-03T04:23:40.177Z,7.92
2019-04-03T04:24:45.297Z,7.20
2019-04-03T04:25:51.253Z,7.12
2019-04-03T04:26:56.793Z,7.25
2019-04-03T04:28:02.389Z,7.22
2019-04-03T04:29:10.300Z,8.18
2019-04-03T04:30:17.815Z,7.55
2019-04-03T04:31:22.821Z,6.72
2019-04-03T04:32:27.899Z,7.15
2019-04-03T04:33:33.090Z,7.97
2019-04-03T04:34:38.048Z,7.80
2019-04-03T04:35:43.182Z,7.35
2019-04-03T04:36:48.110Z,7.05
2019-04-03T04:37:55.422Z,6.80
2019-04-03T04:39:00.103Z,7.12
2019-04-03T04:40:05.530Z,7.40
2019-04-03T04:41:10.538Z,7.70
2019-04-03T04:42:15.669Z,7.35
2019-04-03T04:43:20.737Z,7.08
2019-04-03T04:44:25.935Z,9.33
2019-04-03T04:45:33.288Z,7.55
2019-04-03T04:46:38.248Z,7.53
2019-04-03T04:47:45.586Z,7.22
2019-04-03T04:48:51.731Z,7.08
2019-04-03T04:49:56.611Z,7.22
2019-04-03T04:51:01.563Z,7.58
2019-04-03T04:52:06.453Z,7.10
2019-04-03T04:53:11.478Z,7.65
2019-04-03T04:54:16.447Z,7.25
2019-04-03T04:55:21.656Z,7.72
2019-04-03T04:56:26.524Z,7.15
2019-04-03T04:57:31.601Z,7.78
2019-04-03T04:58:36.392Z,6.75
2019-04-03T04:59:41.310Z,6.72
2019-04-03T05:00:47.406Z,8.70
2019-04-03T05:01:53.170Z,7.45
2019-04-03T05:03:00.938Z,7.62
2019-04-03T05:04:04.957Z,7.37
2019-04-03T05:05:10.006Z,7.47
2019-04-03T05:06:14.889Z,6.65
2019-04-03T05:07:20.070Z,7.33
2019-04-03T05:08:25.149Z,7.30
2019-04-03T05:09:30.345Z,7.28
2019-04-03T05:10:36.878Z,7.03
2019-04-03T05:11:41.944Z,7.30
2019-04-03T05:12:47.068Z,7.90
2019-04-03T05:13:52.201Z,8.38
2019-04-03T05:14:57.240Z,7.60
2019-04-03T05:16:02.228Z,7.75
2019-04-03T05:17:07.302Z,7.12
2019-04-03T05:18:12.341Z,7.00
2019-04-03T05:19:19.085Z,7.30
2019-04-03T05:20:26.316Z,7.72
2019-04-03T05:21:32.856Z,7.33
2019-04-03T05:22:38.093Z,7.42
2019-04-03T05:23:43.195Z,7.37
2019-04-03T05:24:48.054Z,7.22
2019-04-03T05:25:53.360Z,7.97
2019-04-03T05:27:01.040Z,7.33
2019-04-03T05:28:06.551Z,8.23
2019-04-03T05:29:11.732Z,7.92
2019-04-03T05:30:29.452Z,7.70
2019-04-03T05:31:34.612Z,7.83
2019-04-03T05:32:41.188Z,7.47
2019-04-03T05:33:46.493Z,7.70
2019-04-03T05:34:51.492Z,7.33
2019-04-03T05:35:56.437Z,7.30
2019-04-03T05:37:01.793Z,7.50
2019-04-03T05:38:06.832Z,7.97
2019-04-03T05:39:11.911Z,7.75
2019-04-03T05:40:16.961Z,7.60
2019-04-03T05:41:22.087Z,8.10
2019-04-03T05:42:28.731Z,8.00
2019-04-03T05:43:33.702Z,7.60
2019-04-03T05:44:38.853Z,7.83
2019-04-03T05:45:44.235Z,7.87
2019-04-03T05:46:49.245Z,7.15
2019-04-03T05:47:54.338Z,8.15
2019-04-03T05:48:59.786Z,7.47
2019-04-03T05:50:05.881Z,8.23
2019-04-03T05:51:11.618Z,7.50
2019-04-03T05:52:16.753Z,8.63
2019-04-03T05:53:21.646Z,7.92
2019-04-03T05:54:26.745Z,7.92
2019-04-03T05:55:35.344Z,7.47
2019-04-03T05:56:43.394Z,7.75
2019-04-03T05:57:55.403Z,7.67
2019-04-03T05:59:04.780Z,8.25
2019-04-03T06:00:11.850Z,7.95
2019-04-03T06:01:18.083Z,7.75
2019-04-03T06:02:23.987Z,7.72
2019-04-03T06:03:40.510Z,8.25
2019-04-03T06:04:36.013Z,7.70
2019-04-03T06:05:41.823Z,7.90
2019-04-03T06:06:48.233Z,6.97
2019-04-03T06:07:53.405Z,7.62
2019-04-03T06:08:58.342Z,7.12
2019-04-03T06:10:03.588Z,8.05
2019-04-03T06:11:09.498Z,8.05
2019-04-03T06:12:17.984Z,8.40
2019-04-03T06:13:22.064Z,8.75
2019-04-03T06:14:27.325Z,7.90
2019-04-03T06:15:32.605Z,7.95
2019-04-03T06:16:37.637Z,8.08
2019-04-03T06:17:42.545Z,8.38
2019-04-03T06:18:48.289Z,8.40
2019-04-03T06:19:53.283Z,8.48
2019-04-03T06:20:58.318Z,7.58
2019-04-03T06:22:03.435Z,7.87
2019-04-03T06:23:08.555Z,8.10
2019-04-03T06:24:14.134Z,8.55
2019-04-03T06:25:19.622Z,7.92
2019-04-03T06:26:24.900Z,8.45
2019-04-03T06:27:30.043Z,7.58
2019-04-03T06:28:35.035Z,8.33
2019-04-03T06:29:39.939Z,8.95
2019-04-03T06:30:45.190Z,8.45
2019-04-03T06:31:50.337Z,8.30
2019-04-03T06:32:55.540Z,9.08
2019-04-03T06:34:01.116Z,7.72
2019-04-03T06:35:06.389Z,7.15
2019-04-03T06:36:11.274Z,7.78
2019-04-03T06:37:16.177Z,7.92
2019-04-03T06:38:22.467Z,8.28
2019-04-03T06:39:31.497Z,8.83
2019-04-03T06:40:35.455Z,7.80
2019-04-03T06:41:42.735Z,7.62
2019-04-03T06:42:48.389Z,7.87
2019-04-03T06:43:54.290Z,8.08
2019-04-03T06:44:59.784Z,8.25
2019-04-03T06:46:04.797Z,8.18
2019-04-03T06:47:09.725Z,8.60
2019-04-03T06:48:15.419Z,8.85
2019-04-03T06:49:20.454Z,9.95
2019-04-03T06:50:25.384Z,8.30
2019-04-03T06:51:30.516Z,8.23
2019-04-03T06:52:35.518Z,8.55
2019-04-03T06:53:40.657Z,8.78
2019-04-03T06:54:46.147Z,9.23
2019-04-03T06:55:51.251Z,8.45
2019-04-03T06:56:56.619Z,8.48
2019-04-03T06:58:02.049Z,11.28
2019-04-03T06:59:07.171Z,9.93
2019-04-03T07:00:12.555Z,8.75
2019-04-03T07:01:19.389Z,8.68
2019-04-03T07:02:27.110Z,12.03
2019-04-03T07:03:33.678Z,8.08
2019-04-03T07:04:38.349Z,9.05
2019-04-03T07:05:44.416Z,9.13
2019-04-03T07:06:49.416Z,9.15
2019-04-03T07:07:54.444Z,8.10
2019-04-03T07:08:59.496Z,8.83
2019-04-03T07:10:05.093Z,9.18
2019-04-03T07:11:22.740Z,8.53
2019-04-03T07:12:17.912Z,9.25
2019-04-03T07:13:23.614Z,9.23
2019-04-03T07:14:28.565Z,7.80
2019-04-03T07:15:33.534Z,8.15
2019-04-03T07:16:39.008Z,9.50
2019-04-03T07:17:43.872Z,8.88
2019-04-03T07:18:49.422Z,8.30
2019-04-03T07:19:54.645Z,8.13
2019-04-03T07:20:59.510Z,8.18
2019-04-03T07:22:04.480Z,8.20
2019-04-03T07:23:09.482Z,8.65
2019-04-03T07:24:14.430Z,8.68
2019-04-03T07:25:20.492Z,8.73
2019-04-03T07:26:26.012Z,8.80
2019-04-03T07:27:31.139Z,8.33
2019-04-03T07:28:35.976Z,8.78
2019-04-03T07:29:41.399Z,8.25
2019-04-03T07:30:46.699Z,9.13
2019-04-03T07:31:52.774Z,9.05
2019-04-03T07:32:58.533Z,8.43
2019-04-03T07:34:03.965Z,8.85
2019-04-03T07:35:10.352Z,8.73
2019-04-03T07:36:15.720Z,9.05
2019-04-03T07:37:20.858Z,8.38
2019-04-03T07:38:26.185Z,8.88
2019-04-03T07:39:31.201Z,9.65
2019-04-03T07:40:36.212Z,9.78
2019-04-03T07:41:41.724Z,8.80
2019-04-03T07:42:47.168Z,9.58
2019-04-03T07:43:52.522Z,9.55
2019-04-03T07:44:57.533Z,8.53
2019-04-03T07:46:03.442Z,9.08
2019-04-03T07:47:08.932Z,9.60
2019-04-03T07:48:17.188Z,8.75
2019-04-03T07:49:22.699Z,9.48
2019-04-03T07:50:27.817Z,10.05
2019-04-03T07:51:33.028Z,8.60
2019-04-03T07:52:38.179Z,8.95
2019-04-03T07:53:43.296Z,8.90
2019-04-03T07:54:48.569Z,9.65
2019-04-03T07:55:55.221Z,9.53
2019-04-03T07:57:00.334Z,9.10
2019-04-03T07:58:05.253Z,9.43
2019-04-03T07:59:10.544Z,8.25
2019-04-03T08:00:17.154Z,8.93
2019-04-03T08:01:21.983Z,10.30
2019-04-03T08:02:27.091Z,9.65
2019-04-03T08:03:32.129Z,8.30
2019-04-03T08:04:37.213Z,9.15
2019-04-03T08:05:42.255Z,9.73
2019-04-03T08:06:47.655Z,9.13
2019-04-03T08:07:52.886Z,9.68
2019-04-03T08:09:07.366Z,9.90
2019-04-03T08:10:05.670Z,9.43
2019-04-03T08:11:14.238Z,8.78
2019-04-03T08:12:18.559Z,9.30
2019-04-03T08:13:24.040Z,9.65
2019-04-03T08:14:29.364Z,10.50
2019-04-03T08:15:34.683Z,9.98
2019-04-03T08:16:42.124Z,10.60
2019-04-03T08:17:49.202Z,9.13
2019-04-03T08:18:53.775Z,9.13
2019-04-03T08:19:58.956Z,9.38
2019-04-03T08:21:04.418Z,9.00
2019-04-03T08:22:09.701Z,9.68
2019-04-03T08:23:18.173Z,10.18
2019-04-03T08:24:23.547Z,10.00
2019-04-03T08:25:28.868Z,9.55
2019-04-03T08:26:34.097Z,8.98
2019-04-03T08:27:39.580Z,9.80
2019-04-03T08:28:44.811Z,9.53
2019-04-03T08:29:49.904Z,9.38
2019-04-03T08:30:54.940Z,9.30
2019-04-03T08:32:00.143Z,10.08
2019-04-03T08:33:15.198Z,10.50
2019-04-03T08:34:18.070Z,9.85
2019-04-03T08:35:23.361Z,9.30
2019-04-03T08:36:28.311Z,9.63
2019-04-03T08:37:33.281Z,10.50
2019-04-03T08:38:38.613Z,9.70
2019-04-03T08:39:44.003Z,9.78
2019-04-03T08:40:51.544Z,9.73
2019-04-03T08:41:57.128Z,9.98
2019-04-03T08:43:02.320Z,10.15
2019-04-03T08:44:08.579Z,9.95
2019-04-03T08:45:14.749Z,9.98
2019-04-03T08:46:19.870Z,9.08
2019-04-03T08:47:24.830Z,10.78
2019-04-03T08:48:29.825Z,9.25
2019-04-03T08:49:35.400Z,9.70
2019-04-03T08:50:40.495Z,10.98
2019-04-03T08:51:45.488Z,8.95
2019-04-03T08:52:50.628Z,9.88
2019-04-03T08:53:55.651Z,10.82
2019-04-03T08:55:00.677Z,10.48
2019-04-03T08:56:05.731Z,9.43
2019-04-03T08:57:11.077Z,9.80
2019-04-03T08:58:16.116Z,9.43
2019-04-03T08:59:21.041Z,10.03
2019-04-03T09:00:26.500Z,9.50
2019-04-03T09:01:31.577Z,10.10
2019-04-03T09:02:36.689Z,11.00
2019-04-03T09:03:42.218Z,10.35
2019-04-03T09:04:48.366Z,10.65
2019-04-03T09:05:55.657Z,10.18
2019-04-03T09:07:00.829Z,10.38
2019-04-03T09:08:05.824Z,10.10
2019-04-03T09:09:11.828Z,9.70
2019-04-03T09:10:17.279Z,10.23
2019-04-03T09:11:22.484Z,10.70
2019-04-03T09:12:28.239Z,10.55
2019-04-03T09:13:33.447Z,10.10
2019-04-03T09:14:39.038Z,9.68
2019-04-03T09:15:44.276Z,9.75
2019-04-03T09:16:49.945Z,10.50
2019-04-03T09:17:56.277Z,9.68
2019-04-03T09:19:01.308Z,10.53
2019-04-03T09:20:07.236Z,9.58
2019-04-03T09:21:12.835Z,10.15
2019-04-03T09:22:21.616Z,10.30
2019-04-03T09:23:26.264Z,9.73
2019-04-03T09:24:31.061Z,9.88
2019-04-03T09:25:35.957Z,10.23
2019-04-03T09:26:41.147Z,10.55
2019-04-03T09:27:46.457Z,10.60
2019-04-03T09:28:51.657Z,10.17
2019-04-03T09:29:56.791Z,10.82
2019-04-03T09:31:02.088Z,9.95
2019-04-03T09:32:07.516Z,9.70
2019-04-03T09:33:12.532Z,10.90
2019-04-03T09:34:20.221Z,10.85
2019-04-03T09:35:24.623Z,10.50
2019-04-03T09:36:29.686Z,10.55
2019-04-03T09:37:37.196Z,10.10
2019-04-03T09:38:41.943Z,9.93
2019-04-03T09:39:48.367Z,10.95
2019-04-03T09:40:53.860Z,10.13
2019-04-03T09:41:58.945Z,10.10
2019-04-03T09:43:04.233Z,9.70
2019-04-03T09:44:09.438Z,10.65
2019-04-03T09:45:15.018Z,10.43
2019-04-03T09:46:20.091Z,10.17
2019-04-03T09:47:25.102Z,10.23
2019-04-03T09:48:30.318Z,10.30
2019-04-03T09:49:38.093Z,10.20
2019-04-03T09:50:42.197Z,9.50
2019-04-03T09:51:47.638Z,10.50
2019-04-03T09:52:54.642Z,10.33
2019-04-03T09:53:59.253Z,10.37
2019-04-03T09:55:04.426Z,10.17
2019-04-03T09:56:09.659Z,10.53
2019-04-03T09:57:14.972Z,9.90
2019-04-03T09:58:20.168Z,10.63
2019-04-03T09:59:25.552Z,10.70
2019-04-03T10:00:30.881Z,10.40
2019-04-03T10:01:36.128Z,10.67
2019-04-03T10:02:41.262Z,10.67
2019-04-03T10:03:46.786Z,10.87
2019-04-03T10:04:52.266Z,11.03
2019-04-03T10:05:58.201Z,10.37
2019-04-03T10:07:04.018Z,9.97
2019-04-03T10:08:09.692Z,10.33
2019-04-03T10:09:15.124Z,10.47
2019-04-03T10:10:20.461Z,10.93
2019-04-03T10:11:25.554Z,9.93
2019-04-03T10:12:32.198Z,9.70
2019-04-03T10:13:37.561Z,10.30
2019-04-03T10:14:42.863Z,10.53
2019-04-03T10:15:47.977Z,10.70
2019-04-03T10:16:53.374Z,10.43
2019-04-03T10:17:58.801Z,10.50
2019-04-03T10:19:03.985Z,10.27
2019-04-03T10:20:10.073Z,10.40
2019-04-03T10:21:15.261Z,10.17
2019-04-03T10:22:22.200Z,10.53
2019-04-03T10:23:29.057Z,11.23
2019-04-03T10:24:33.815Z,11.47
2019-04-03T10:25:39.085Z,10.87
2019-04-03T10:26:44.144Z,10.37
2019-04-03T10:27:49.167Z,9.90
2019-04-03T10:28:54.858Z,11.23
2019-04-03T10:29:59.955Z,11.30
2019-04-03T10:31:05.231Z,10.17
2019-04-03T10:32:10.248Z,10.43
2019-04-03T10:33:15.684Z,10.80
2019-04-03T10:34:20.971Z,10.27
2019-04-03T10:35:26.279Z,10.33
2019-04-03T10:36:31.298Z,9.63
2019-04-03T10:37:36.644Z,10.00
2019-04-03T10:38:42.776Z,10.37
2019-04-03T10:39:48.573Z,10.33
2019-04-03T10:40:56.383Z,10.57
2019-04-03T10:42:02.397Z,10.23
2019-04-03T10:43:08.140Z,10.20
2019-04-03T10:44:13.784Z,11.30
2019-04-03T10:45:20.144Z,10.53
2019-04-03T10:46:25.370Z,9.83
2019-04-03T10:47:41.146Z,9.93
2019-04-03T10:48:38.039Z,12.20
2019-04-03T10:49:43.169Z,10.23
2019-04-03T10:50:48.545Z,10.83
2019-04-03T10:51:54.005Z,10.37
2019-04-03T10:52:59.284Z,10.23
2019-04-03T10:54:04.722Z,10.67
2019-04-03T10:55:10.203Z,10.60
2019-04-03T10:56:15.491Z,10.30
2019-04-03T10:57:21.115Z,10.23
2019-04-03T10:58:26.330Z,10.07
2019-04-03T10:59:31.627Z,9.97
2019-04-03T11:00:37.164Z,10.43
2019-04-03T11:01:42.638Z,9.80
2019-04-03T11:02:47.972Z,10.40
2019-04-03T11:03:53.308Z,9.77
2019-04-03T11:05:00.514Z,10.97
2019-04-03T11:06:05.572Z,11.27
2019-04-03T11:07:10.782Z,10.50
2019-04-03T11:08:16.040Z,10.83
2019-04-03T11:09:21.158Z,9.87
2019-04-03T11:10:26.542Z,10.77
2019-04-03T11:11:31.773Z,10.63
2019-04-03T11:12:37.004Z,10.33
2019-04-03T11:13:41.931Z,9.77
2019-04-03T11:14:49.418Z,9.83
2019-04-03T11:15:55.025Z,10.73
2019-04-03T11:17:00.541Z,10.47
2019-04-03T11:18:05.974Z,9.83
2019-04-03T11:19:11.809Z,10.70
2019-04-03T11:20:17.594Z,9.77
2019-04-03T11:21:25.412Z,10.90
2019-04-03T11:22:40.777Z,10.10
2019-04-03T11:23:42.266Z,12.03
2019-04-03T11:24:44.287Z,11.00
2019-04-03T11:25:50.256Z,10.57
2019-04-03T11:26:55.545Z,10.60
2019-04-03T11:28:00.828Z,10.90
2019-04-03T11:29:08.785Z,9.30
2019-04-03T11:30:17.102Z,10.37
2019-04-03T11:31:27.111Z,10.57
2019-04-03T11:32:27.582Z,10.20
2019-04-03T11:33:33.018Z,9.93
2019-04-03T11:34:38.408Z,10.47
2019-04-03T11:35:44.314Z,10.20
2019-04-03T11:36:49.740Z,9.37
2019-04-03T11:37:55.131Z,9.83
2019-04-03T11:39:11.637Z,10.30
2019-04-03T11:40:08.483Z,10.47
2019-04-03T11:41:18.041Z,9.43
2019-04-03T11:42:25.250Z,9.47
2019-04-03T11:43:30.763Z,9.63
2019-04-03T11:44:34.830Z,10.20
2019-04-03T11:45:40.312Z,10.27
2019-04-03T11:46:45.537Z,10.60
2019-04-03T11:47:50.624Z,9.93
2019-04-03T11:48:55.880Z,11.10
2019-04-03T11:50:01.118Z,10.13
2019-04-03T11:51:06.474Z,9.97
2019-04-03T11:52:11.511Z,10.50
2019-04-03T11:53:17.026Z,9.70
2019-04-03T11:54:22.199Z,9.83
2019-04-03T11:55:27.766Z,10.00
2019-04-03T11:56:32.919Z,10.27
2019-04-03T11:57:38.219Z,10.53
2019-04-03T11:58:43.426Z,10.27
2019-04-03T11:59:49.037Z,10.27
2019-04-03T12:00:54.412Z,9.67
2019-04-03T12:01:59.676Z,10.10
2019-04-03T12:03:05.007Z,9.77
2019-04-03T12:04:10.548Z,10.10
2019-04-03T12:05:20.601Z,10.00
2019-04-03T12:06:25.623Z,10.60
2019-04-03T12:07:30.838Z,10.90
2019-04-03T12:08:35.931Z,11.30
2019-04-03T12:09:41.096Z,11.37
2019-04-03T12:10:46.370Z,10.93
2019-04-03T12:11:54.373Z,10.03
2019-04-03T12:12:59.720Z,10.73
2019-04-03T12:14:05.044Z,10.57
2019-04-03T12:15:10.318Z,10.60
2019-04-03T12:16:15.310Z,10.00
2019-04-03T12:17:20.501Z,10.53
2019-04-03T12:18:25.582Z,10.90
2019-04-03T12:19:32.024Z,10.03
2019-04-03T12:20:41.219Z,11.67
2019-04-03T12:21:43.762Z,9.77
2019-04-03T12:22:48.873Z,10.13
2019-04-03T12:23:54.298Z,10.53
2019-04-03T12:24:59.429Z,10.20
2019-04-03T12:26:05.964Z,10.17
2019-04-03T12:27:14.361Z,10.57
2019-04-03T12:28:20.029Z,9.23
2019-04-03T12:29:25.275Z,10.13
2019-04-03T12:30:30.413Z,10.57
2019-04-03T12:31:35.821Z,9.73
2019-04-03T12:32:48.629Z,9.53
2019-04-03T12:33:56.059Z,9.53
2019-04-03T12:34:57.064Z,10.87
2019-04-03T12:36:02.399Z,9.47
2019-04-03T12:37:07.377Z,9.43
2019-04-03T12:38:12.569Z,9.57
2019-04-03T12:39:27.024Z,10.17
2019-04-03T12:40:32.926Z,10.33
2019-04-03T12:41:38.072Z,10.20
2019-04-03T12:42:43.274Z,9.73
2019-04-03T12:43:50.019Z,10.20
2019-04-03T12:44:55.695Z,9.80
2019-04-03T12:46:03.053Z,10.43
2019-04-03T12:47:12.788Z,9.20
2019-04-03T12:48:15.415Z,10.27
2019-04-03T12:49:22.423Z,10.50
2019-04-03T12:50:28.544Z,9.40
2019-04-03T12:51:33.977Z,9.73
2019-04-03T12:52:38.912Z,9.13
2019-04-03T12:53:43.933Z,10.37
2019-04-03T12:54:49.643Z,9.80
2019-04-03T12:55:56.617Z,9.67
2019-04-03T12:57:02.325Z,9.60
2019-04-03T12:58:07.724Z,9.90
2019-04-03T12:59:13.414Z,9.20
2019-04-03T13:00:19.353Z,9.80
2019-04-03T13:01:24.990Z,10.37
2019-04-03T13:02:30.127Z,10.43
2019-04-03T13:03:36.725Z,9.97
2019-04-03T13:04:42.084Z,10.20
2019-04-03T13:05:49.053Z,9.70
2019-04-03T13:06:54.109Z,9.67
2019-04-03T13:07:59.803Z,9.77
2019-04-03T13:09:09.541Z,9.60
2019-04-03T13:10:15.997Z,9.67
2019-04-03T13:11:22.367Z,10.40
2019-04-03T13:12:27.959Z,10.07
2019-04-03T13:13:33.181Z,9.80
2019-04-03T13:14:38.550Z,10.07
2019-04-03T13:15:43.665Z,9.40
2019-04-03T13:16:49.330Z,9.33
2019-04-03T13:17:54.651Z,9.30
2019-04-03T13:18:59.883Z,9.23
2019-04-03T13:20:06.435Z,10.17
2019-04-03T13:21:13.223Z,8.43
2019-04-03T13:22:18.886Z,10.37
2019-04-03T13:23:26.713Z,9.23
2019-04-03T13:24:31.708Z,9.97
2019-04-03T13:25:36.844Z,9.80
2019-04-03T13:26:42.041Z,9.60
2019-04-03T13:27:47.350Z,10.17
2019-04-03T13:28:52.682Z,10.33
2019-04-03T13:30:06.502Z,10.47
2019-04-03T13:31:12.897Z,10.50
2019-04-03T13:32:18.702Z,9.77
2019-04-03T13:33:25.511Z,9.67
2019-04-03T13:34:31.861Z,10.33
2019-04-03T13:35:37.719Z,10.10
2019-04-03T13:36:43.206Z,9.83
2019-04-03T13:37:48.428Z,10.58
2019-04-03T13:38:53.659Z,10.43
2019-04-03T13:40:00.537Z,9.47
2019-04-03T13:41:05.760Z,10.10
2019-04-03T13:42:11.322Z,10.33
2019-04-03T13:43:19.609Z,9.20
2019-04-03T13:44:26.576Z,10.17
2019-04-03T13:45:31.971Z,10.40
2019-04-03T13:46:37.475Z,9.57
2019-04-03T13:47:46.277Z,8.93
2019-04-03T13:48:49.097Z,9.53
2019-04-03T13:49:54.199Z,9.70
2019-04-03T13:50:59.142Z,8.93
2019-04-03T13:52:08.472Z,9.73
2019-04-03T13:53:10.694Z,9.23
2019-04-03T13:54:16.685Z,10.17
2019-04-03T13:55:21.858Z,10.27
2019-04-03T13:56:27.772Z,9.43
2019-04-03T13:57:32.688Z,9.83
2019-04-03T13:58:39.636Z,10.67
2019-04-03T13:59:44.501Z,10.13
2019-04-03T14:00:59.340Z,9.00
2019-04-03T14:01:58.743Z,9.77
2019-04-03T14:03:03.838Z,9.40
2019-04-03T14:04:08.795Z,9.60
2019-04-03T14:05:14.086Z,9.37
2019-04-03T14:06:23.175Z,8.73
2019-04-03T14:07:30.782Z,9.77
2019-04-03T14:08:34.638Z,10.43
2019-04-03T14:09:39.595Z,9.60
2019-04-03T14:10:44.485Z,9.43
2019-04-03T14:11:51.357Z,9.60
2019-04-03T14:12:56.587Z,10.77
2019-04-03T14:14:04.331Z,9.77
2019-04-03T14:15:12.357Z,11.80
2019-04-03T14:16:21.521Z,9.70
2019-04-03T14:17:27.195Z,9.17
2019-04-03T14:18:32.030Z,9.23
2019-04-03T14:19:44.333Z,9.23
2019-04-03T14:20:48.919Z,8.77
2019-04-03T14:21:53.597Z,8.43
2019-04-03T14:22:58.721Z,8.60
2019-04-03T14:24:08.752Z,9.10
2019-04-03T14:25:21.012Z,9.40
2019-04-03T14:26:20.373Z,9.03
2019-04-03T14:27:29.371Z,8.20